Time;durP1;ratioP1;P1;durP2;ratioP2;P2;SDS_P1;SDS_P2;PMS_P1;PMS_P2;Temp;Humidity;BMP_temperature;BMP_pressure;BME280_temperature;BME280_humidity;BME280_pressure;Samples;Min_cycle;Max_cycle;Signal;HPM_P1;HPM_P2
2021/08/08 00:01:17;;;;;;;;;3.00;1.25;;;;;19.04;59.95;100479.22;4998832;28;45544;-75
2021/08/08 00:03:42;;;;;;;;;2.00;2.00;;;;;19.05;60.10;100483.66;4999643;28;46042;-75
2021/08/08 00:06:08;;;;;;;;;1.00;1.00;;;;;19.10;60.55;100491.47;5000067;28;45390;-76
2021/08/08 00:08:34;;;;;;;;;0.75;0.50;;;;;19.02;60.54;100479.31;4998835;28;45308;-75
2021/08/08 00:11:00;;;;;;;;;2.25;1.00;;;;;19.06;60.30;100493.50;4999946;28;45232;-75
2021/08/08 00:13:26;;;;;;;;;4.50;2.25;;;;;18.89;60.44;100475.78;4998601;28;48366;-75
2021/08/08 00:15:52;;;;;;;;;1.25;1.00;;;;;19.04;60.37;100503.56;4999962;28;45177;-75
2021/08/08 00:18:18;;;;;;;;;2.50;2.50;;;;;18.83;60.45;100470.81;4999866;28;45229;-76
2021/08/08 00:20:43;;;;;;;;;1.00;1.00;;;;;18.86;60.67;100479.56;4998593;28;45422;-75
2021/08/08 00:23:09;;;;;;;;;3.00;2.00;;;;;18.91;60.52;100500.00;4998431;28;48098;-75
2021/08/08 00:25:34;;;;;;;;;1.00;1.00;;;;;18.97;60.60;100513.97;4999678;28;45365;-75
2021/08/08 00:28:00;;;;;;;;;3.25;2.00;;;;;18.88;60.41;100495.69;4995215;28;45383;-75
2021/08/08 00:30:26;;;;;;;;;1.00;1.00;;;;;18.87;60.59;100500.22;4999770;28;45513;-75
2021/08/08 00:32:51;;;;;;;;;2.00;1.50;;;;;18.91;60.72;100508.13;4986738;28;45381;-76
2021/08/08 00:35:18;;;;;;;;;1.75;1.00;;;;;18.93;60.50;100511.56;4986701;28;45348;-76
2021/08/08 00:37:47;;;;;;;;;3.75;1.75;;;;;18.91;60.66;100509.00;4999745;28;45272;-75
2021/08/08 00:40:15;;;;;;;;;4.50;2.00;;;;;18.81;60.65;100500.66;4998445;28;45659;-75
2021/08/08 00:42:42;;;;;;;;;2.00;2.00;;;;;18.79;60.62;100494.47;4998130;28;46544;-75
2021/08/08 00:45:08;;;;;;;;;1.00;1.00;;;;;18.84;60.68;100513.09;4998683;28;45410;-75
2021/08/08 00:47:34;;;;;;;;;2.25;2.00;;;;;18.84;60.70;100519.41;4999322;28;45236;-75
2021/08/08 00:49:59;;;;;;;;;2.00;1.00;;;;;18.72;60.93;100497.72;4999903;28;45146;-75
2021/08/08 00:52:24;;;;;;;;;3.50;1.75;;;;;18.70;60.86;100495.97;4999197;28;45316;-75
2021/08/08 00:54:50;;;;;;;;;2.00;1.00;;;;;18.55;61.23;100480.00;4999603;28;45283;-76
2021/08/08 00:57:15;;;;;;;;;3.50;2.00;;;;;18.75;60.77;100517.28;4999524;28;45211;-75
2021/08/08 00:59:41;;;;;;;;;2.00;2.00;;;;;18.72;61.17;100514.78;4999451;28;45255;-75
2021/08/08 01:02:06;;;;;;;;;3.50;2.00;;;;;18.68;61.07;100507.88;4999372;28;45576;-76
2021/08/08 01:04:37;;;;;;;;;1.00;1.00;;;;;18.57;60.93;100500.50;4997877;28;45686;-75
2021/08/08 01:07:11;;;;;;;;;3.00;1.75;;;;;18.72;60.94;100522.91;5001163;28;45265;-75
2021/08/08 01:09:42;;;;;;;;;2.25;1.50;;;;;18.72;60.93;100517.50;5001866;28;45490;-75
2021/08/08 01:12:08;;;;;;;;;3.00;3.00;;;;;18.71;61.48;100523.91;5002584;28;45213;-75
2021/08/08 01:14:35;;;;;;;;;1.00;1.00;;;;;18.59;61.20;100506.66;5001559;28;45824;-75
2021/08/08 01:17:04;;;;;;;;;2.00;1.50;;;;;18.43;61.33;100484.41;5002823;28;45351;-75
2021/08/08 01:19:35;;;;;;;;;6.00;3.25;;;;;18.61;61.18;100518.25;5002406;28;45490;-75
2021/08/08 01:22:04;;;;;;;;;2.25;0.75;;;;;18.57;61.44;100511.31;5002374;28;45665;-76
2021/08/08 01:24:30;;;;;;;;;3.00;2.75;;;;;18.64;61.21;100520.75;5001447;28;45525;-75
2021/08/08 01:26:56;;;;;;;;;2.50;2.50;;;;;18.56;61.88;100511.44;5002583;28;45279;-75
2021/08/08 01:29:21;;;;;;;;;2.50;2.50;;;;;18.57;61.16;100524.84;5002540;28;45328;-75
2021/08/08 01:31:49;;;;;;;;;1.50;1.50;;;;;18.55;61.64;100531.34;4998268;28;45428;-75
2021/08/08 01:34:15;;;;;;;;;1.75;1.75;;;;;18.54;61.88;100522.34;4993960;28;45455;-75
2021/08/08 01:36:40;;;;;;;;;3.75;2.75;;;;;18.46;61.40;100509.38;5002506;28;45221;-75
2021/08/08 01:39:10;;;;;;;;;3.00;1.50;;;;;18.50;61.61;100521.69;5002414;28;45491;-75
2021/08/08 01:41:49;;;;;;;;;2.00;2.00;;;;;18.50;61.42;100531.66;5002179;28;45296;-75
2021/08/08 01:44:18;;;;;;;;;3.50;2.00;;;;;18.39;61.70;100516.16;5002290;28;45261;-75
2021/08/08 01:46:47;;;;;;;;;4.00;2.25;;;;;18.43;62.00;100515.00;5002585;28;45221;-74
2021/08/08 01:49:14;;;;;;;;;3.00;2.00;;;;;18.46;61.87;100528.31;5000478;28;45563;-75
2021/08/08 01:51:39;;;;;;;;;2.00;2.00;;;;;18.45;61.63;100526.56;5002191;28;45519;-75
2021/08/08 01:54:05;;;;;;;;;1.25;1.25;;;;;18.39;61.86;100512.59;5000530;28;46255;-75
2021/08/08 01:56:31;;;;;;;;;3.75;2.75;;;;;18.46;62.20;100519.31;5002342;28;45418;-75
2021/08/08 01:58:56;;;;;;;;;3.25;2.25;;;;;18.49;61.95;100532.59;5002031;28;45387;-75
2021/08/08 02:01:27;;;;;;;;;2.25;2.25;;;;;18.43;62.01;100520.41;5000913;28;45336;-75
2021/08/08 02:03:52;;;;;;;;;2.00;2.00;;;;;18.35;61.93;100508.41;5001656;28;45249;-75
2021/08/08 02:06:18;;;;;;;;;2.75;2.50;;;;;18.26;62.15;100499.06;5002332;28;45529;-75
2021/08/08 02:08:43;;;;;;;;;2.75;2.75;;;;;18.40;62.32;100514.34;5001851;28;45508;-75
2021/08/08 02:11:08;;;;;;;;;2.25;2.25;;;;;18.46;61.79;100522.91;5000504;28;48430;-75
2021/08/08 02:13:34;;;;;;;;;5.00;3.00;;;;;18.31;62.32;100508.59;5001762;28;45245;-74
2021/08/08 02:15:59;;;;;;;;;2.00;2.00;;;;;18.45;61.82;100534.66;5002048;28;45531;-75
2021/08/08 02:18:24;;;;;;;;;2.00;2.00;;;;;18.37;61.91;100520.81;5001303;28;45549;-75
2021/08/08 02:20:50;;;;;;;;;2.75;2.75;;;;;18.41;62.16;100534.97;5001902;28;46393;-75
2021/08/08 02:23:15;;;;;;;;;3.75;3.00;;;;;18.41;62.21;100538.56;5000367;28;45446;-75
2021/08/08 02:25:41;;;;;;;;;4.00;3.00;;;;;18.35;62.23;100530.88;5001815;28;45454;-75
2021/08/08 02:28:07;;;;;;;;;1.25;1.25;;;;;18.30;62.21;100533.03;5001404;28;45307;-75
2021/08/08 02:30:36;;;;;;;;;5.75;3.00;;;;;18.36;62.29;100543.41;5001698;28;45422;-75
2021/08/08 02:33:03;;;;;;;;;4.25;3.00;;;;;18.37;61.92;100549.69;4989495;28;45562;-75
2021/08/08 02:35:28;;;;;;;;;2.25;2.25;;;;;18.26;62.26;100537.78;5001753;28;45403;-75
2021/08/08 02:37:53;;;;;;;;;3.75;2.75;;;;;18.36;62.17;100550.63;5000158;28;45425;-76
2021/08/08 02:40:19;;;;;;;;;3.00;3.00;;;;;18.27;62.04;100536.78;5001479;28;45599;-75
2021/08/08 02:42:44;;;;;;;;;2.25;2.00;;;;;18.24;62.00;100537.00;5001245;28;45429;-75
2021/08/08 02:45:10;;;;;;;;;2.75;2.75;;;;;18.25;62.04;100537.88;5001571;28;45417;-75
2021/08/08 02:47:35;;;;;;;;;1.50;1.25;;;;;18.28;62.22;100534.97;5001013;28;45543;-75
2021/08/08 02:50:01;;;;;;;;;2.00;2.00;;;;;18.35;62.01;100548.94;5001371;28;45429;-75
2021/08/08 02:52:27;;;;;;;;;2.25;2.25;;;;;18.36;61.99;100556.03;4999752;28;45392;-74
2021/08/08 02:54:52;;;;;;;;;3.00;3.00;;;;;18.28;62.08;100546.63;5000002;28;45399;-75
2021/08/08 02:57:18;;;;;;;;;4.00;3.00;;;;;18.24;62.43;100545.13;4996552;28;46041;-75
2021/08/08 02:59:43;;;;;;;;;4.25;2.75;;;;;18.26;62.01;100550.38;5000886;28;45260;-75
2021/08/08 03:02:08;;;;;;;;;2.75;1.75;;;;;18.28;62.52;100554.72;5001127;28;45415;-74
2021/08/08 03:04:34;;;;;;;;;3.50;2.75;;;;;18.19;62.08;100544.53;5001127;28;45285;-75
2021/08/08 03:07:00;;;;;;;;;5.25;3.25;;;;;18.09;61.96;100530.81;4999646;28;45602;-75
2021/08/08 03:09:25;;;;;;;;;3.00;2.75;;;;;18.03;62.28;100524.94;5001102;28;45606;-75
2021/08/08 03:11:51;;;;;;;;;2.50;2.50;;;;;18.07;62.28;100548.94;5000770;28;45308;-75
2021/08/08 03:14:17;;;;;;;;;3.25;3.00;;;;;18.12;62.12;100554.03;4999941;28;45154;-74
2021/08/08 03:16:44;;;;;;;;;3.50;2.50;;;;;18.14;62.27;100571.88;5000745;28;45410;-75
2021/08/08 03:19:11;;;;;;;;;2.75;2.75;;;;;18.04;62.46;100551.88;5000499;28;45514;-75
2021/08/08 03:21:37;;;;;;;;;5.25;3.50;;;;;18.12;62.69;100573.78;5000716;28;45359;-75
2021/08/08 03:24:03;;;;;;;;;2.50;2.00;;;;;18.11;62.83;100572.09;5000981;28;45225;-75
2021/08/08 03:26:29;;;;;;;;;3.25;2.25;;;;;18.09;62.20;100571.31;5000680;28;45293;-75
2021/08/08 03:28:55;;;;;;;;;3.00;2.00;;;;;18.09;62.42;100578.53;4999928;28;45266;-75
2021/08/08 03:31:20;;;;;;;;;5.25;3.50;;;;;18.01;62.74;100565.56;5000288;28;45146;-75
2021/08/08 03:33:46;;;;;;;;;4.00;2.00;;;;;18.10;62.15;100583.00;4988476;28;45413;-75
2021/08/08 03:36:11;;;;;;;;;3.00;2.50;;;;;18.10;62.47;100585.69;5000616;28;45252;-75
2021/08/08 03:38:38;;;;;;;;;4.00;2.00;;;;;18.11;62.82;100580.19;5000570;28;46272;-75
2021/08/08 03:41:03;;;;;;;;;2.75;2.50;;;;;17.98;62.65;100562.22;4999234;28;46289;-75
2021/08/08 03:43:28;;;;;;;;;2.50;2.50;;;;;17.90;62.48;100554.59;5000665;28;45458;-75
2021/08/08 03:45:54;;;;;;;;;4.25;3.25;;;;;18.01;62.56;100554.75;5000370;28;45241;-75
2021/08/08 03:48:19;;;;;;;;;4.75;2.50;;;;;18.14;62.65;100589.91;4998999;28;47033;-75
2021/08/08 03:50:44;;;;;;;;;2.75;2.50;;;;;18.09;62.54;100583.94;5000461;28;45393;-76
2021/08/08 03:53:10;;;;;;;;;3.75;3.75;;;;;18.08;62.18;100583.09;5000431;28;45442;-75
2021/08/08 03:55:35;;;;;;;;;2.75;2.75;;;;;17.99;62.27;100577.44;5000286;28;45403;-75
2021/08/08 03:58:00;;;;;;;;;3.50;3.50;;;;;17.84;62.29;100549.56;4998794;28;47307;-75
2021/08/08 04:00:26;;;;;;;;;4.50;4.50;;;;;18.01;62.45;100572.78;5000232;28;45438;-75
2021/08/08 04:02:51;;;;;;;;;3.75;3.75;;;;;17.83;62.41;100540.59;4999874;28;45378;-75
2021/08/08 04:05:17;;;;;;;;;5.75;3.25;;;;;18.01;62.41;100562.88;5000300;28;45296;-75
2021/08/08 04:07:42;;;;;;;;;3.25;3.25;;;;;17.99;62.46;100564.78;4999887;28;46115;-75
2021/08/08 04:10:08;;;;;;;;;4.75;4.00;;;;;18.02;62.08;100577.22;4998955;28;45305;-75
2021/08/08 04:12:33;;;;;;;;;4.25;3.75;;;;;18.04;62.17;100594.19;5000106;28;45227;-75
2021/08/08 04:15:02;;;;;;;;;3.75;3.75;;;;;17.93;62.36;100576.88;5000239;28;45570;-75
2021/08/08 04:17:27;;;;;;;;;5.50;5.50;;;;;17.90;62.21;100574.34;4985579;28;47277;-75
2021/08/08 04:19:52;;;;;;;;;6.25;3.50;;;;;17.99;62.76;100591.78;4998710;28;45239;-75
2021/08/08 04:22:18;;;;;;;;;5.25;4.50;;;;;18.00;62.54;100606.19;5000046;28;45220;-74
2021/08/08 04:24:45;;;;;;;;;6.00;4.50;;;;;17.94;61.99;100599.31;4998660;28;45425;-75
2021/08/08 04:27:11;;;;;;;;;5.00;4.75;;;;;17.77;62.29;100576.97;5000001;28;46271;-75
2021/08/08 04:29:36;;;;;;;;;4.25;4.00;;;;;17.99;62.30;100613.38;4998516;28;45407;-75
2021/08/08 04:32:01;;;;;;;;;2.75;2.75;;;;;17.88;62.04;100597.03;4993838;28;45730;-75
2021/08/08 04:34:30;;;;;;;;;5.50;3.75;;;;;17.90;62.02;100606.75;4993785;28;45568;-75
2021/08/08 04:36:55;;;;;;;;;5.25;3.00;;;;;17.88;62.17;100610.53;4995360;28;47410;-75
2021/08/08 04:39:20;;;;;;;;;5.75;4.75;;;;;17.68;62.24;100580.28;4994120;28;45292;-75
2021/08/08 04:41:46;;;;;;;;;5.75;3.50;;;;;17.88;62.34;100619.50;5001404;28;46562;-74
2021/08/08 04:44:11;;;;;;;;;5.00;3.50;;;;;17.80;61.97;100611.00;5003212;28;45461;-75
2021/08/08 04:46:36;;;;;;;;;5.00;4.75;;;;;17.81;62.11;100609.16;5003190;28;45311;-76
2021/08/08 04:49:02;;;;;;;;;4.75;3.00;;;;;17.77;62.25;100606.69;5002771;28;45174;-74
2021/08/08 04:51:27;;;;;;;;;5.25;4.25;;;;;17.70;62.17;100593.66;5002088;28;45427;-74
2021/08/08 04:53:52;;;;;;;;;3.00;3.00;;;;;17.66;62.00;100602.91;5002690;28;45431;-74
2021/08/08 04:56:18;;;;;;;;;4.25;3.50;;;;;17.72;61.97;100613.31;5003115;28;46466;-74
2021/08/08 04:58:43;;;;;;;;;4.00;3.00;;;;;17.70;62.22;100602.63;4991591;28;45442;-74
2021/08/08 05:01:08;;;;;;;;;4.75;4.25;;;;;17.78;61.81;100615.63;5001592;28;45490;-75
2021/08/08 05:03:34;;;;;;;;;4.25;3.00;;;;;17.77;61.59;100625.59;5001290;28;45680;-74
2021/08/08 05:05:59;;;;;;;;;5.00;4.75;;;;;17.68;61.88;100615.34;5002740;28;46239;-75
2021/08/08 05:08:25;;;;;;;;;5.50;4.00;;;;;17.71;61.86;100625.97;5002561;28;45308;-74
2021/08/08 05:10:50;;;;;;;;;5.00;4.00;;;;;17.76;61.84;100629.22;5002934;28;45301;-74
2021/08/08 05:13:15;;;;;;;;;10.50;5.00;;;;;17.68;61.78;100615.34;5002539;28;46724;-74
2021/08/08 05:15:41;;;;;;;;;5.00;4.00;;;;;17.74;61.38;100617.69;5002616;28;46068;-74
2021/08/08 05:18:06;;;;;;;;;4.00;3.00;;;;;17.57;61.92;100594.47;5002469;28;45323;-75
2021/08/08 05:20:31;;;;;;;;;4.75;4.50;;;;;17.78;61.80;100630.00;5002755;28;45478;-75
2021/08/08 05:22:57;;;;;;;;;5.00;3.75;;;;;17.78;61.64;100626.44;5002593;28;45584;-74
2021/08/08 05:25:22;;;;;;;;;4.00;3.75;;;;;17.73;61.69;100617.78;5001165;28;45401;-75
2021/08/08 05:27:47;;;;;;;;;2.50;2.50;;;;;17.70;61.57;100599.06;5002628;28;45317;-75
2021/08/08 05:30:13;;;;;;;;;6.50;4.50;;;;;17.71;61.26;100603.50;5001404;28;45291;-75
2021/08/08 05:32:39;;;;;;;;;3.25;2.00;;;;;17.83;62.14;100629.72;4991233;28;45445;-75
2021/08/08 05:35:05;;;;;;;;;3.50;3.50;;;;;17.78;61.36;100616.50;5000407;28;45321;-74
2021/08/08 05:37:31;;;;;;;;;4.50;3.25;;;;;17.83;61.76;100615.34;5001231;28;45285;-74
2021/08/08 05:39:59;;;;;;;;;4.00;4.00;;;;;17.77;61.24;100627.38;5001950;28;45391;-75
2021/08/08 05:42:25;;;;;;;;;5.50;4.00;;;;;17.75;61.59;100627.50;5001678;28;45379;-75
2021/08/08 05:44:50;;;;;;;;;3.50;2.00;;;;;17.84;61.60;100642.25;5001867;28;45616;-74
2021/08/08 05:47:15;;;;;;;;;4.00;4.00;;;;;17.79;61.80;100630.84;5001938;28;45379;-75
2021/08/08 05:49:41;;;;;;;;;4.75;4.00;;;;;17.81;61.61;100631.66;5001856;28;45550;-75
2021/08/08 05:52:07;;;;;;;;;3.50;3.50;;;;;17.73;61.78;100612.38;5001673;28;45459;-75
2021/08/08 05:54:32;;;;;;;;;6.50;5.00;;;;;17.69;61.44;100605.41;5001853;28;45346;-74
2021/08/08 05:56:58;;;;;;;;;7.50;4.25;;;;;17.75;61.61;100619.38;5002206;28;45451;-75
2021/08/08 05:59:23;;;;;;;;;3.75;3.50;;;;;17.86;61.60;100644.81;5002326;28;45700;-75
2021/08/08 06:01:48;;;;;;;;;4.50;4.50;;;;;17.90;61.40;100651.81;5000250;28;45170;-75
2021/08/08 06:04:14;;;;;;;;;3.50;2.75;;;;;17.86;61.47;100651.13;5000409;28;47214;-75
2021/08/08 06:06:39;;;;;;;;;3.00;2.25;;;;;17.89;61.87;100655.47;5001672;28;45305;-75
2021/08/08 06:09:05;;;;;;;;;7.00;5.00;;;;;17.90;61.58;100659.91;5002085;28;45344;-73
2021/08/08 06:11:32;;;;;;;;;2.25;2.25;;;;;17.84;61.73;100658.44;5001591;28;45381;-71
2021/08/08 06:13:57;;;;;;;;;4.00;3.75;;;;;17.69;61.53;100637.81;5000805;28;46005;-76
2021/08/08 06:16:23;;;;;;;;;5.50;4.50;;;;;17.77;61.61;100644.47;4988522;28;45357;-73
2021/08/08 06:18:48;;;;;;;;;5.75;4.25;;;;;17.64;62.06;100616.53;5001809;28;45573;-73
2021/08/08 06:21:13;;;;;;;;;4.75;4.00;;;;;17.77;61.50;100630.09;5001551;28;45482;-73
2021/08/08 06:23:39;;;;;;;;;2.50;2.50;;;;;17.94;61.60;100666.84;5000860;28;46024;-73
2021/08/08 06:26:04;;;;;;;;;5.00;3.50;;;;;17.73;61.83;100625.88;5001334;28;45424;-73
2021/08/08 06:28:30;;;;;;;;;3.00;3.00;;;;;17.85;61.03;100652.06;5000370;28;45366;-76
2021/08/08 06:30:55;;;;;;;;;3.75;2.75;;;;;17.81;61.48;100642.44;5000317;28;46076;-76
2021/08/08 06:33:21;;;;;;;;;4.75;4.25;;;;;17.85;61.46;100651.22;4997441;28;45530;-77
2021/08/08 06:35:48;;;;;;;;;4.75;4.75;;;;;17.86;61.58;100656.50;5001532;28;45378;-76
2021/08/08 06:38:13;;;;;;;;;4.50;3.50;;;;;18.01;61.67;100683.50;5000810;28;45708;-76
2021/08/08 06:40:39;;;;;;;;;4.50;4.50;;;;;18.02;61.66;100675.31;5000067;28;45434;-77
2021/08/08 06:43:04;;;;;;;;;3.00;3.00;;;;;17.92;61.44;100666.06;5001468;28;45369;-77
2021/08/08 06:45:32;;;;;;;;;6.75;5.00;;;;;18.03;61.34;100679.75;4998839;28;45301;-76
2021/08/08 06:47:59;;;;;;;;;4.75;2.75;;;;;17.90;62.08;100658.06;5000816;28;45225;-77
2021/08/08 06:50:24;;;;;;;;;4.75;4.00;;;;;18.09;61.39;100687.47;5001108;28;45525;-76
2021/08/08 06:52:50;;;;;;;;;4.50;3.00;;;;;18.03;61.20;100655.44;5001359;28;46038;-77
2021/08/08 06:55:15;;;;;;;;;3.50;3.00;;;;;17.96;61.64;100660.38;5000812;28;45371;-77
2021/08/08 06:57:40;;;;;;;;;3.25;3.25;;;;;17.91;61.39;100651.72;4999862;28;45307;-77
2021/08/08 07:00:07;;;;;;;;;2.75;2.75;;;;;18.01;61.44;100675.41;5001135;28;45359;-77
2021/08/08 07:02:32;;;;;;;;;4.00;3.00;;;;;17.85;60.86;100657.47;5000507;28;46843;-76
2021/08/08 07:04:57;;;;;;;;;4.50;3.75;;;;;18.16;60.99;100712.25;4999266;28;45318;-76
2021/08/08 07:07:23;;;;;;;;;3.75;3.00;;;;;17.92;61.07;100677.72;5000815;28;45378;-74
2021/08/08 07:09:48;;;;;;;;;4.25;2.75;;;;;17.96;61.38;100675.72;4998779;28;45556;-74
2021/08/08 07:12:13;;;;;;;;;4.00;4.00;;;;;17.92;60.79;100663.38;4975910;28;47724;-75
2021/08/08 07:14:39;;;;;;;;;3.00;3.00;;;;;18.12;60.84;100684.53;4994270;28;45513;-76
2021/08/08 07:17:04;;;;;;;;;3.50;2.75;;;;;18.18;61.11;100701.34;4999272;28;45307;-76
2021/08/08 07:19:30;;;;;;;;;2.25;1.50;;;;;17.99;60.90;100672.81;4999710;28;45291;-77
2021/08/08 07:21:55;;;;;;;;;3.75;3.00;;;;;18.06;61.15;100679.56;4998961;28;45516;-76
2021/08/08 07:24:21;;;;;;;;;4.75;4.75;;;;;18.24;60.90;100704.53;4999656;28;45622;-76
2021/08/08 07:26:47;;;;;;;;;7.75;3.50;;;;;18.18;60.80;100702.22;4999469;28;45521;-76
2021/08/08 07:29:12;;;;;;;;;4.75;3.00;;;;;18.08;61.19;100676.75;4999571;28;45667;-76
2021/08/08 07:31:37;;;;;;;;;4.75;3.50;;;;;18.04;61.10;100680.63;4998065;28;46543;-76
2021/08/08 07:34:03;;;;;;;;;4.50;3.50;;;;;18.26;60.59;100713.38;4997614;28;45417;-77
2021/08/08 07:36:28;;;;;;;;;3.75;3.75;;;;;18.14;60.83;100701.53;4999339;28;45576;-74
2021/08/08 07:38:54;;;;;;;;;4.00;2.25;;;;;18.25;60.41;100716.19;4999541;28;45312;-74
2021/08/08 07:41:19;;;;;;;;;3.25;3.25;;;;;18.20;60.50;100702.97;4999246;28;45516;-73
2021/08/08 07:43:45;;;;;;;;;4.75;3.75;;;;;18.25;60.80;100717.03;4999346;28;45501;-74
2021/08/08 07:46:10;;;;;;;;;5.50;3.75;;;;;18.01;60.86;100684.41;4999293;28;45491;-73
2021/08/08 07:48:35;;;;;;;;;5.00;4.25;;;;;18.10;60.20;100701.84;4998882;28;45686;-76
2021/08/08 07:51:01;;;;;;;;;4.25;4.25;;;;;18.26;60.48;100724.19;4997412;28;48087;-76
2021/08/08 07:53:26;;;;;;;;;6.50;3.75;;;;;18.08;60.50;100703.78;4981341;28;45411;-72
2021/08/08 07:55:55;;;;;;;;;5.25;3.25;;;;;18.29;60.51;100737.50;4997281;28;45656;-75
2021/08/08 07:58:21;;;;;;;;;6.50;2.75;;;;;18.24;59.98;100734.25;4989827;28;45948;-76
2021/08/08 08:00:46;;;;;;;;;5.25;5.00;;;;;18.12;60.33;100716.09;4992228;28;47203;-75
2021/08/08 08:03:12;;;;;;;;;5.25;4.50;;;;;18.12;60.33;100719.66;4996502;28;45587;-75
2021/08/08 08:05:37;;;;;;;;;4.75;4.75;;;;;18.33;60.36;100746.28;4996989;28;45396;-74
2021/08/08 08:08:03;;;;;;;;;4.00;4.00;;;;;18.13;60.34;100724.13;4990849;28;45735;-75
2021/08/08 08:10:31;;;;;;;;;4.75;4.75;;;;;18.25;60.63;100737.81;4997510;28;46740;-75
2021/08/08 08:12:57;;;;;;;;;4.50;4.25;;;;;18.26;60.99;100731.41;4996022;28;45974;-72
2021/08/08 08:15:22;;;;;;;;;4.00;4.00;;;;;18.37;60.62;100752.34;4992504;28;45444;-74
2021/08/08 08:17:50;;;;;;;;;3.00;2.75;;;;;18.36;60.47;100748.78;4996583;28;45998;-74
2021/08/08 08:20:15;;;;;;;;;4.25;3.75;;;;;18.38;60.82;100765.75;4997466;28;47416;-74
2021/08/08 08:22:42;;;;;;;;;4.00;4.00;;;;;18.34;60.51;100766.91;4998736;28;45363;-75
2021/08/08 08:25:08;;;;;;;;;4.50;4.00;;;;;18.17;60.29;100723.91;4998791;28;45397;-74
2021/08/08 08:27:33;;;;;;;;;5.00;5.00;;;;;18.18;60.67;100720.25;4997660;28;45505;-72
2021/08/08 08:30:01;;;;;;;;;4.50;4.50;;;;;18.19;60.17;100738.19;4998177;28;45665;-73
2021/08/08 08:32:26;;;;;;;;;4.50;4.50;;;;;18.23;60.74;100755.94;5004707;28;45497;-73
2021/08/08 08:34:52;;;;;;;;;2.00;2.00;;;;;18.21;60.22;100749.75;4998482;28;45375;-73
2021/08/08 08:37:19;;;;;;;;;4.00;3.75;;;;;18.41;60.11;100773.69;4997104;28;45414;-75
2021/08/08 08:39:44;;;;;;;;;5.75;4.00;;;;;18.26;60.33;100750.31;4997281;28;47419;-74
2021/08/08 08:42:11;;;;;;;;;5.00;2.25;;;;;18.49;60.30;100792.09;4997043;28;45484;-75
2021/08/08 08:44:36;;;;;;;;;3.50;2.75;;;;;18.34;59.83;100761.50;4997408;28;45441;-74
2021/08/08 08:47:04;;;;;;;;;5.25;4.00;;;;;18.51;60.95;100788.31;4997174;28;45679;-74
2021/08/08 08:49:29;;;;;;;;;6.75;5.00;;;;;18.58;60.49;100790.63;4998451;28;45490;-73
2021/08/08 08:52:07;;;;;;;;;4.75;4.50;;;;;18.59;60.24;100789.66;4993395;28;45674;-73
2021/08/08 08:54:33;;;;;;;;;4.00;3.00;;;;;18.58;60.40;100777.97;4999333;28;45322;-73
2021/08/08 08:56:59;;;;;;;;;4.25;3.75;;;;;18.68;60.66;100794.47;4998057;28;45683;-73
2021/08/08 08:59:25;;;;;;;;;5.50;3.75;;;;;18.72;60.30;100796.00;4998252;28;47316;-74
2021/08/08 09:01:51;;;;;;;;;6.50;4.00;;;;;18.73;59.51;100776.09;4999335;28;45271;-74
2021/08/08 09:04:17;;;;;;;;;4.75;3.50;;;;;18.79;59.19;100780.22;4998629;28;46637;-70
2021/08/08 09:06:44;;;;;;;;;4.00;4.00;;;;;18.82;59.44;100788.16;4999461;28;45336;-71
2021/08/08 09:09:09;;;;;;;;;4.50;3.00;;;;;18.80;59.15;100784.69;4999484;28;46514;-74
2021/08/08 09:11:39;;;;;;;;;4.00;4.00;;;;;18.81;59.05;100781.00;4999563;28;45318;-74
2021/08/08 09:14:05;;;;;;;;;4.00;4.00;;;;;18.86;58.83;100781.59;4997396;28;45299;-74
2021/08/08 09:16:40;;;;;;;;;4.75;4.75;;;;;18.87;58.78;100783.31;4998453;28;45423;-74
2021/08/08 09:19:05;;;;;;;;;4.25;3.50;;;;;18.84;58.48;100783.53;4997365;28;45657;-73
2021/08/08 09:21:33;;;;;;;;;5.50;4.25;;;;;18.94;58.33;100787.34;4998830;28;45323;-73
2021/08/08 09:24:01;;;;;;;;;4.50;3.00;;;;;18.79;58.25;100758.59;4998960;28;45511;-75
2021/08/08 09:26:34;;;;;;;;;3.00;3.00;;;;;19.04;58.36;100807.44;4997703;28;45604;-74
2021/08/08 09:29:08;;;;;;;;;3.50;3.50;;;;;19.02;57.55;100797.66;5000733;28;48140;-72
2021/08/08 09:31:49;;;;;;;;;3.25;3.25;;;;;19.13;57.13;100811.34;5000490;28;45599;-76
2021/08/08 09:34:29;;;;;;;;;5.75;3.50;;;;;19.13;57.19;100805.94;4989955;28;45371;-73
2021/08/08 09:36:57;;;;;;;;;4.00;3.75;;;;;19.18;57.36;100797.53;5002373;28;45358;-72
2021/08/08 09:39:41;;;;;;;;;2.00;2.00;;;;;19.17;57.22;100787.66;5002517;28;46469;-73
2021/08/08 09:42:18;;;;;;;;;4.75;3.50;;;;;19.22;56.80;100796.31;5002273;28;45415;-73
2021/08/08 09:45:03;;;;;;;;;4.75;3.00;;;;;19.33;56.63;100809.09;5002488;28;45253;-74
2021/08/08 09:47:38;;;;;;;;;4.75;3.00;;;;;19.36;56.17;100803.50;5002160;28;45241;-74
2021/08/08 09:50:05;;;;;;;;;2.25;2.25;;;;;19.40;56.26;100808.59;5002217;28;46172;-73
2021/08/08 09:52:32;;;;;;;;;4.50;3.75;;;;;19.46;55.89;100814.56;5002087;28;45443;-73
2021/08/08 09:54:57;;;;;;;;;3.25;3.25;;;;;19.32;55.69;100786.59;5002102;28;45227;-73
2021/08/08 09:57:24;;;;;;;;;4.00;3.00;;;;;19.49;55.35;100809.81;5000659;28;45517;-74
2021/08/08 09:59:51;;;;;;;;;3.00;3.00;;;;;19.55;55.35;100805.81;5001759;28;45343;-74
2021/08/08 10:02:21;;;;;;;;;4.25;3.00;;;;;19.61;55.58;100817.09;5001885;28;45500;-74
2021/08/08 10:04:50;;;;;;;;;2.25;2.25;;;;;19.56;55.24;100808.44;5002082;28;45360;-74
2021/08/08 10:07:17;;;;;;;;;6.75;3.75;;;;;19.68;55.26;100822.06;5001905;28;45315;-74
2021/08/08 10:09:44;;;;;;;;;3.00;3.00;;;;;19.68;55.14;100808.53;5001779;28;47267;-74
2021/08/08 10:12:33;;;;;;;;;3.25;3.25;;;;;19.81;54.81;100822.97;5003502;28;45632;-73
2021/08/08 10:14:59;;;;;;;;;2.00;2.00;;;;;19.83;54.34;100822.88;4995504;28;45568;-74
2021/08/08 10:17:26;;;;;;;;;4.00;3.00;;;;;19.90;55.03;100833.19;5001586;28;45330;-74
2021/08/08 10:19:55;;;;;;;;;1.75;1.50;;;;;19.95;54.30;100832.88;4988884;28;46127;-74
2021/08/08 10:22:23;;;;;;;;;4.50;3.00;;;;;19.92;53.67;100814.97;5001585;28;45488;-74
2021/08/08 10:24:55;;;;;;;;;3.00;3.00;;;;;19.99;54.11;100815.41;4997492;28;45489;-74
2021/08/08 10:27:23;;;;;;;;;4.50;3.25;;;;;20.02;53.64;100827.88;4997176;28;45233;-74
2021/08/08 10:29:50;;;;;;;;;3.00;3.00;;;;;20.06;52.72;100834.81;5001552;28;46234;-74
2021/08/08 10:32:15;;;;;;;;;2.75;2.75;;;;;20.01;53.09;100826.13;4994619;28;45416;-74
2021/08/08 10:34:41;;;;;;;;;2.25;2.00;;;;;20.03;53.00;100824.19;5002016;28;45319;-74
2021/08/08 10:37:11;;;;;;;;;3.50;3.00;;;;;20.10;52.21;100834.47;5001455;28;45371;-74
2021/08/08 10:39:43;;;;;;;;;2.25;2.25;;;;;20.13;53.26;100845.09;5001606;28;45237;-74
2021/08/08 10:42:09;;;;;;;;;2.75;2.75;;;;;19.99;52.83;100813.56;5001224;28;45268;-74
2021/08/08 10:44:51;;;;;;;;;3.25;3.00;;;;;20.20;52.78;100839.22;5000880;28;45257;-74
2021/08/08 10:47:27;;;;;;;;;5.50;4.00;;;;;20.13;52.80;100819.84;4988120;28;45465;-74
2021/08/08 10:49:53;;;;;;;;;2.75;2.00;;;;;20.26;52.16;100823.41;5001327;28;45501;-74
2021/08/08 10:52:19;;;;;;;;;3.00;3.00;;;;;20.24;52.49;100827.22;5001174;28;45343;-75
2021/08/08 10:54:47;;;;;;;;;2.00;2.00;;;;;20.24;52.63;100814.50;5001310;28;45306;-74
2021/08/08 10:57:15;;;;;;;;;2.75;2.75;;;;;20.25;52.43;100810.84;5001213;28;45588;-74
2021/08/08 10:59:44;;;;;;;;;2.50;2.25;;;;;20.44;51.82;100828.47;5001082;28;45597;-74
2021/08/08 11:02:14;;;;;;;;;2.50;2.25;;;;;20.48;51.78;100825.44;5000885;28;45653;-73
2021/08/08 11:04:40;;;;;;;;;2.00;2.00;;;;;20.48;52.21;100801.03;4988731;28;45489;-74
2021/08/08 11:07:06;;;;;;;;;1.50;1.50;;;;;20.60;51.57;100812.84;5000791;28;45470;-74
2021/08/08 11:09:37;;;;;;;;;4.50;2.00;;;;;20.59;51.30;100802.09;5001142;28;46656;-74
2021/08/08 11:12:04;;;;;;;;;2.00;2.00;;;;;20.68;51.31;100817.69;4999719;28;45379;-74
2021/08/08 11:14:30;;;;;;;;;3.00;3.00;;;;;20.68;51.20;100802.31;5001024;28;45386;-74
2021/08/08 11:17:01;;;;;;;;;3.50;2.00;;;;;20.64;50.92;100810.78;5000758;28;45413;-73
2021/08/08 11:19:33;;;;;;;;;1.50;1.50;;;;;20.76;51.25;100820.72;5000888;28;45982;-73
2021/08/08 11:22:26;;;;;;;;;2.00;2.00;;;;;20.78;51.41;100807.03;5000955;28;45541;-73